sensor_id;sensor_type;location;lat;lon;timestamp;temperature;humidity
11838;DHT22;5978;51.020;6.764;2023-04-03T00:01:07;3.80;99.90
11838;DHT22;5978;51.020;6.764;2023-04-03T00:03:33;3.80;99.90
11838;DHT22;5978;51.020;6.764;2023-04-03T00:05:59;3.60;99.90
11838;DHT22;5978;51.020;6.764;2023-04-03T00:08:25;3.60;99.90
11838;DHT22;5978;51.020;6.764;2023-04-03T00:10:50;3.50;99.90
11838;DHT22;5978;51.020;6.764;2023-04-03T00:13:16;3.50;99.90
11838;DHT22;5978;51.020;6.764;2023-04-03T00:15:42;3.40;99.90
11838;DHT22;5978;51.020;6.764;2023-04-03T00:18:08;3.40;99.90
11838;DHT22;5978;51.020;6.764;2023-04-03T00:20:34;3.30;99.90
11838;DHT22;5978;51.020;6.764;2023-04-03T00:23:00;3.20;99.90
11838;DHT22;5978;51.020;6.764;2023-04-03T00:25:26;3.30;99.90
11838;DHT22;5978;51.020;6.764;2023-04-03T00:27:52;3.10;99.90
11838;DHT22;5978;51.020;6.764;2023-04-03T00:30:20;3.10;99.90
11838;DHT22;5978;51.020;6.764;2023-04-03T00:32:48;3.10;99.90
11838;DHT22;5978;51.020;6.764;2023-04-03T00:35:13;3.10;99.90
11838;DHT22;5978;51.020;6.764;2023-04-03T00:37:42;3.10;99.90
11838;DHT22;5978;51.020;6.764;2023-04-03T00:40:09;3.10;99.90
11838;DHT22;5978;51.020;6.764;2023-04-03T00:42:36;3.10;99.90
11838;DHT22;5978;51.020;6.764;2023-04-03T00:47:29;3.00;99.90
11838;DHT22;5978;51.020;6.764;2023-04-03T00:49:57;3.00;99.90
11838;DHT22;5978;51.020;6.764;2023-04-03T00:52:26;2.90;99.90
11838;DHT22;5978;51.020;6.764;2023-04-03T00:54:56;2.90;99.90
11838;DHT22;5978;51.020;6.764;2023-04-03T00:57:23;2.90;99.90
11838;DHT22;5978;51.020;6.764;2023-04-03T00:59:52;2.80;99.90
11838;DHT22;5978;51.020;6.764;2023-04-03T01:02:20;2.70;99.90
11838;DHT22;5978;51.020;6.764;2023-04-03T01:04:46;2.70;99.90
11838;DHT22;5978;51.020;6.764;2023-04-03T01:07:20;2.70;99.90
11838;DHT22;5978;51.020;6.764;2023-04-03T01:09:48;2.60;99.90
11838;DHT22;5978;51.020;6.764;2023-04-03T01:12:34;2.60;99.90
11838;DHT22;5978;51.020;6.764;2023-04-03T01:15:07;2.50;99.90
11838;DHT22;5978;51.020;6.764;2023-04-03T01:25:36;2.50;99.90
11838;DHT22;5978;51.020;6.764;2023-04-03T01:28:03;2.50;99.90
11838;DHT22;5978;51.020;6.764;2023-04-03T01:30:35;2.50;99.90
11838;DHT22;5978;51.020;6.764;2023-04-03T01:33:02;2.50;99.90
11838;DHT22;5978;51.020;6.764;2023-04-03T01:35:28;2.50;99.90
11838;DHT22;5978;51.020;6.764;2023-04-03T01:37:54;2.40;99.90
11838;DHT22;5978;51.020;6.764;2023-04-03T01:40:20;2.40;99.90
11838;DHT22;5978;51.020;6.764;2023-04-03T01:42:45;2.30;99.90
11838;DHT22;5978;51.020;6.764;2023-04-03T01:45:11;2.30;99.90
11838;DHT22;5978;51.020;6.764;2023-04-03T01:47:37;2.30;99.90
11838;DHT22;5978;51.020;6.764;2023-04-03T01:50:03;2.30;99.90
11838;DHT22;5978;51.020;6.764;2023-04-03T01:52:29;2.20;99.90
11838;DHT22;5978;51.020;6.764;2023-04-03T01:54:55;2.20;99.90
11838;DHT22;5978;51.020;6.764;2023-04-03T01:57:21;2.20;99.90
11838;DHT22;5978;51.020;6.764;2023-04-03T01:59:46;2.20;99.90
11838;DHT22;5978;51.020;6.764;2023-04-03T02:02:12;2.20;99.90
11838;DHT22;5978;51.020;6.764;2023-04-03T02:04:40;2.20;99.90
11838;DHT22;5978;51.020;6.764;2023-04-03T02:07:06;2.10;99.90
11838;DHT22;5978;51.020;6.764;2023-04-03T02:09:32;2.10;99.90
11838;DHT22;5978;51.020;6.764;2023-04-03T02:11:58;2.10;99.90
11838;DHT22;5978;51.020;6.764;2023-04-03T02:14:23;2.10;99.90
11838;DHT22;5978;51.020;6.764;2023-04-03T02:16:49;2.00;99.90
11838;DHT22;5978;51.020;6.764;2023-04-03T02:19:15;2.00;99.90
11838;DHT22;5978;51.020;6.764;2023-04-03T02:21:40;2.00;99.90
11838;DHT22;5978;51.020;6.764;2023-04-03T02:24:07;2.00;99.90
11838;DHT22;5978;51.020;6.764;2023-04-03T02:26:32;2.00;99.90
11838;DHT22;5978;51.020;6.764;2023-04-03T02:28:58;2.00;99.90
11838;DHT22;5978;51.020;6.764;2023-04-03T02:31:24;2.00;99.90
11838;DHT22;5978;51.020;6.764;2023-04-03T02:33:49;1.90;99.90
11838;DHT22;5978;51.020;6.764;2023-04-03T02:36:16;1.90;99.90
11838;DHT22;5978;51.020;6.764;2023-04-03T02:38:41;1.90;99.90
11838;DHT22;5978;51.020;6.764;2023-04-03T02:41:11;2.00;99.90
11838;DHT22;5978;51.020;6.764;2023-04-03T02:43:38;2.00;99.90
11838;DHT22;5978;51.020;6.764;2023-04-03T02:46:04;1.90;99.90
11838;DHT22;5978;51.020;6.764;2023-04-03T02:48:30;1.90;99.90
11838;DHT22;5978;51.020;6.764;2023-04-03T02:50:55;1.90;99.90
11838;DHT22;5978;51.020;6.764;2023-04-03T02:53:21;1.90;99.90
11838;DHT22;5978;51.020;6.764;2023-04-03T02:55:47;1.90;99.90
11838;DHT22;5978;51.020;6.764;2023-04-03T02:58:13;1.90;99.90
11838;DHT22;5978;51.020;6.764;2023-04-03T03:00:39;1.80;99.90
11838;DHT22;5978;51.020;6.764;2023-04-03T03:03:05;1.80;99.90
11838;DHT22;5978;51.020;6.764;2023-04-03T03:05:31;1.80;99.90
11838;DHT22;5978;51.020;6.764;2023-04-03T03:07:56;1.80;99.90
11838;DHT22;5978;51.020;6.764;2023-04-03T03:10:22;1.80;99.90
11838;DHT22;5978;51.020;6.764;2023-04-03T03:12:48;1.80;99.90
11838;DHT22;5978;51.020;6.764;2023-04-03T03:15:14;1.90;99.90
11838;DHT22;5978;51.020;6.764;2023-04-03T03:17:41;1.90;99.90
11838;DHT22;5978;51.020;6.764;2023-04-03T03:20:07;1.80;99.90
11838;DHT22;5978;51.020;6.764;2023-04-03T03:22:34;1.80;99.90
11838;DHT22;5978;51.020;6.764;2023-04-03T03:25:01;1.90;99.90
11838;DHT22;5978;51.020;6.764;2023-04-03T03:27:28;1.80;99.90
11838;DHT22;5978;51.020;6.764;2023-04-03T03:29:53;1.80;99.90
11838;DHT22;5978;51.020;6.764;2023-04-03T03:32:19;1.80;99.90
11838;DHT22;5978;51.020;6.764;2023-04-03T03:34:45;1.80;99.90
11838;DHT22;5978;51.020;6.764;2023-04-03T03:37:10;1.80;99.90
11838;DHT22;5978;51.020;6.764;2023-04-03T03:39:36;1.80;99.90
11838;DHT22;5978;51.020;6.764;2023-04-03T03:42:02;1.80;99.90
11838;DHT22;5978;51.020;6.764;2023-04-03T03:44:27;1.80;99.90
11838;DHT22;5978;51.020;6.764;2023-04-03T03:46:55;1.80;99.90
11838;DHT22;5978;51.020;6.764;2023-04-03T03:49:21;1.70;99.90
11838;DHT22;5978;51.020;6.764;2023-04-03T03:51:47;1.70;99.90
11838;DHT22;5978;51.020;6.764;2023-04-03T03:54:13;1.60;99.90
11838;DHT22;5978;51.020;6.764;2023-04-03T03:56:39;1.70;99.90
11838;DHT22;5978;51.020;6.764;2023-04-03T03:59:05;1.70;99.90
11838;DHT22;5978;51.020;6.764;2023-04-03T04:01:31;1.70;99.90
11838;DHT22;5978;51.020;6.764;2023-04-03T04:03:57;1.60;99.90
11838;DHT22;5978;51.020;6.764;2023-04-03T04:06:23;1.70;99.90
11838;DHT22;5978;51.020;6.764;2023-04-03T04:08:49;1.60;99.90
11838;DHT22;5978;51.020;6.764;2023-04-03T04:11:15;1.60;99.90
11838;DHT22;5978;51.020;6.764;2023-04-03T04:13:41;1.60;99.90
11838;DHT22;5978;51.020;6.764;2023-04-03T04:16:07;1.60;99.90
11838;DHT22;5978;51.020;6.764;2023-04-03T04:18:33;1.60;99.90
11838;DHT22;5978;51.020;6.764;2023-04-03T04:20:59;1.50;99.90
11838;DHT22;5978;51.020;6.764;2023-04-03T04:23:25;1.60;99.90
11838;DHT22;5978;51.020;6.764;2023-04-03T04:25:51;1.60;99.90
11838;DHT22;5978;51.020;6.764;2023-04-03T04:28:17;1.50;99.90
11838;DHT22;5978;51.020;6.764;2023-04-03T04:30:43;1.50;99.90
11838;DHT22;5978;51.020;6.764;2023-04-03T04:33:09;1.50;99.90
11838;DHT22;5978;51.020;6.764;2023-04-03T04:35:35;1.50;99.90
11838;DHT22;5978;51.020;6.764;2023-04-03T04:38:01;1.50;99.90
11838;DHT22;5978;51.020;6.764;2023-04-03T04:40:27;1.50;99.90
11838;DHT22;5978;51.020;6.764;2023-04-03T04:42:52;1.50;99.90
11838;DHT22;5978;51.020;6.764;2023-04-03T04:45:18;1.50;99.90
11838;DHT22;5978;51.020;6.764;2023-04-03T04:47:44;1.50;99.90
11838;DHT22;5978;51.020;6.764;2023-04-03T04:50:10;1.50;99.90
11838;DHT22;5978;51.020;6.764;2023-04-03T04:52:37;1.50;99.90
11838;DHT22;5978;51.020;6.764;2023-04-03T04:55:03;1.50;99.90
11838;DHT22;5978;51.020;6.764;2023-04-03T04:57:30;1.40;99.90
11838;DHT22;5978;51.020;6.764;2023-04-03T04:59:55;1.50;99.90
11838;DHT22;5978;51.020;6.764;2023-04-03T05:02:21;1.40;99.90
11838;DHT22;5978;51.020;6.764;2023-04-03T05:04:47;1.40;99.90
11838;DHT22;5978;51.020;6.764;2023-04-03T05:07:12;1.40;99.90
11838;DHT22;5978;51.020;6.764;2023-04-03T05:09:38;1.40;99.90
11838;DHT22;5978;51.020;6.764;2023-04-03T05:12:04;1.50;99.90
11838;DHT22;5978;51.020;6.764;2023-04-03T05:14:30;1.50;99.90
11838;DHT22;5978;51.020;6.764;2023-04-03T05:16:56;1.50;99.90
11838;DHT22;5978;51.020;6.764;2023-04-03T05:19:23;1.50;99.90
11838;DHT22;5978;51.020;6.764;2023-04-03T05:21:48;1.50;99.90
11838;DHT22;5978;51.020;6.764;2023-04-03T05:24:15;1.50;99.90
11838;DHT22;5978;51.020;6.764;2023-04-03T05:26:42;1.50;99.90
11838;DHT22;5978;51.020;6.764;2023-04-03T05:29:08;1.50;99.90
11838;DHT22;5978;51.020;6.764;2023-04-03T05:31:34;1.60;99.90
11838;DHT22;5978;51.020;6.764;2023-04-03T05:34:00;1.60;99.90
11838;DHT22;5978;51.020;6.764;2023-04-03T05:36:26;1.60;99.90
11838;DHT22;5978;51.020;6.764;2023-04-03T05:38:52;1.70;99.90
11838;DHT22;5978;51.020;6.764;2023-04-03T05:41:17;1.70;99.90
11838;DHT22;5978;51.020;6.764;2023-04-03T05:43:43;1.70;99.90
11838;DHT22;5978;51.020;6.764;2023-04-03T05:46:17;1.80;99.90
11838;DHT22;5978;51.020;6.764;2023-04-03T05:48:43;1.80;99.90
11838;DHT22;5978;51.020;6.764;2023-04-03T05:51:22;1.80;99.90
11838;DHT22;5978;51.020;6.764;2023-04-03T05:53:49;1.90;99.90
11838;DHT22;5978;51.020;6.764;2023-04-03T05:56:17;2.00;99.90
11838;DHT22;5978;51.020;6.764;2023-04-03T05:58:43;2.00;99.90
11838;DHT22;5978;51.020;6.764;2023-04-03T06:01:09;2.00;99.90
11838;DHT22;5978;51.020;6.764;2023-04-03T06:03:35;2.10;99.90
11838;DHT22;5978;51.020;6.764;2023-04-03T06:06:03;2.20;99.90
11838;DHT22;5978;51.020;6.764;2023-04-03T06:08:29;2.30;99.90
11838;DHT22;5978;51.020;6.764;2023-04-03T06:10:55;2.30;99.90
11838;DHT22;5978;51.020;6.764;2023-04-03T06:13:21;2.40;99.90
11838;DHT22;5978;51.020;6.764;2023-04-03T06:15:47;2.50;99.90
11838;DHT22;5978;51.020;6.764;2023-04-03T06:18:13;2.50;99.90
11838;DHT22;5978;51.020;6.764;2023-04-03T06:20:39;2.60;99.90
11838;DHT22;5978;51.020;6.764;2023-04-03T06:23:05;2.60;99.90
11838;DHT22;5978;51.020;6.764;2023-04-03T06:25:31;2.70;99.90
11838;DHT22;5978;51.020;6.764;2023-04-03T06:27:57;2.80;99.90
11838;DHT22;5978;51.020;6.764;2023-04-03T06:30:23;2.90;99.90
11838;DHT22;5978;51.020;6.764;2023-04-03T06:32:48;3.00;99.90
11838;DHT22;5978;51.020;6.764;2023-04-03T06:35:14;3.00;99.90
11838;DHT22;5978;51.020;6.764;2023-04-03T06:37:40;3.10;99.90
11838;DHT22;5978;51.020;6.764;2023-04-03T06:40:06;3.10;99.90
11838;DHT22;5978;51.020;6.764;2023-04-03T06:42:32;3.30;99.90
11838;DHT22;5978;51.020;6.764;2023-04-03T06:44:58;3.30;99.90
11838;DHT22;5978;51.020;6.764;2023-04-03T06:47:24;3.40;99.90
11838;DHT22;5978;51.020;6.764;2023-04-03T06:49:50;3.50;99.90
11838;DHT22;5978;51.020;6.764;2023-04-03T06:52:16;3.70;99.90
11838;DHT22;5978;51.020;6.764;2023-04-03T06:54:42;3.80;99.90
11838;DHT22;5978;51.020;6.764;2023-04-03T06:57:07;3.80;99.90
11838;DHT22;5978;51.020;6.764;2023-04-03T06:59:34;4.00;99.90
11838;DHT22;5978;51.020;6.764;2023-04-03T07:01:59;4.10;99.90
11838;DHT22;5978;51.020;6.764;2023-04-03T07:04:26;4.30;99.90
11838;DHT22;5978;51.020;6.764;2023-04-03T07:06:51;4.40;99.90
11838;DHT22;5978;51.020;6.764;2023-04-03T07:09:18;4.40;99.90
11838;DHT22;5978;51.020;6.764;2023-04-03T07:11:44;4.40;99.90
11838;DHT22;5978;51.020;6.764;2023-04-03T07:14:10;4.50;99.90
11838;DHT22;5978;51.020;6.764;2023-04-03T07:16:36;4.60;99.90
11838;DHT22;5978;51.020;6.764;2023-04-03T07:19:02;4.70;99.90
11838;DHT22;5978;51.020;6.764;2023-04-03T07:21:28;4.90;99.90
11838;DHT22;5978;51.020;6.764;2023-04-03T07:23:54;5.10;99.90
11838;DHT22;5978;51.020;6.764;2023-04-03T07:26:21;5.10;99.90
11838;DHT22;5978;51.020;6.764;2023-04-03T07:28:48;5.10;99.90
11838;DHT22;5978;51.020;6.764;2023-04-03T07:31:15;5.10;99.90
11838;DHT22;5978;51.020;6.764;2023-04-03T07:33:41;5.30;99.90
11838;DHT22;5978;51.020;6.764;2023-04-03T07:36:07;5.40;99.90
11838;DHT22;5978;51.020;6.764;2023-04-03T07:38:34;5.50;99.90
11838;DHT22;5978;51.020;6.764;2023-04-03T07:41:01;5.70;99.90
11838;DHT22;5978;51.020;6.764;2023-04-03T07:43:27;5.80;99.90
11838;DHT22;5978;51.020;6.764;2023-04-03T07:45:53;5.80;99.90
11838;DHT22;5978;51.020;6.764;2023-04-03T07:48:24;5.80;99.90
11838;DHT22;5978;51.020;6.764;2023-04-03T07:50:50;5.80;99.90
11838;DHT22;5978;51.020;6.764;2023-04-03T07:53:17;5.90;99.90
11838;DHT22;5978;51.020;6.764;2023-04-03T07:55:46;6.00;99.90
11838;DHT22;5978;51.020;6.764;2023-04-03T07:58:14;6.10;99.90
11838;DHT22;5978;51.020;6.764;2023-04-03T08:00:40;6.00;99.90
11838;DHT22;5978;51.020;6.764;2023-04-03T08:03:09;6.00;99.90
11838;DHT22;5978;51.020;6.764;2023-04-03T08:05:39;6.10;99.90
11838;DHT22;5978;51.020;6.764;2023-04-03T08:08:06;6.30;99.90
11838;DHT22;5978;51.020;6.764;2023-04-03T08:10:32;6.40;99.90
11838;DHT22;5978;51.020;6.764;2023-04-03T08:12:58;6.40;99.90
11838;DHT22;5978;51.020;6.764;2023-04-03T08:15:24;6.50;99.90
11838;DHT22;5978;51.020;6.764;2023-04-03T08:17:50;6.60;99.90
11838;DHT22;5978;51.020;6.764;2023-04-03T08:20:16;6.80;99.90
11838;DHT22;5978;51.020;6.764;2023-04-03T08:22:42;6.80;99.90
11838;DHT22;5978;51.020;6.764;2023-04-03T08:25:08;6.90;99.90
11838;DHT22;5978;51.020;6.764;2023-04-03T08:27:33;6.90;99.90
11838;DHT22;5978;51.020;6.764;2023-04-03T08:29:59;6.90;99.90
11838;DHT22;5978;51.020;6.764;2023-04-03T08:32:25;7.20;99.90
11838;DHT22;5978;51.020;6.764;2023-04-03T08:34:51;7.20;99.90
11838;DHT22;5978;51.020;6.764;2023-04-03T08:37:17;7.30;99.90
11838;DHT22;5978;51.020;6.764;2023-04-03T08:39:43;7.50;99.90
11838;DHT22;5978;51.020;6.764;2023-04-03T08:42:32;7.40;99.90
11838;DHT22;5978;51.020;6.764;2023-04-03T08:45:13;7.50;99.90
11838;DHT22;5978;51.020;6.764;2023-04-03T08:50:20;7.60;99.90
11838;DHT22;5978;51.020;6.764;2023-04-03T08:52:56;7.60;99.90
11838;DHT22;5978;51.020;6.764;2023-04-03T08:55:23;7.80;99.90
11838;DHT22;5978;51.020;6.764;2023-04-03T08:58:04;7.80;95.90
11838;DHT22;5978;51.020;6.764;2023-04-03T09:03:17;8.00;95.50
11838;DHT22;5978;51.020;6.764;2023-04-03T09:06:08;8.00;89.70
11838;DHT22;5978;51.020;6.764;2023-04-03T09:08:50;8.00;88.60
11838;DHT22;5978;51.020;6.764;2023-04-03T09:11:52;8.10;82.60
11838;DHT22;5978;51.020;6.764;2023-04-03T09:17:06;8.30;82.90
11838;DHT22;5978;51.020;6.764;2023-04-03T09:22:17;8.40;82.00
11838;DHT22;5978;51.020;6.764;2023-04-03T09:24:48;8.50;84.50
11838;DHT22;5978;51.020;6.764;2023-04-03T09:27:15;8.60;81.10
11838;DHT22;5978;51.020;6.764;2023-04-03T09:29:43;8.60;79.70
11838;DHT22;5978;51.020;6.764;2023-04-03T09:32:33;8.70;79.80
11838;DHT22;5978;51.020;6.764;2023-04-03T09:35:15;8.80;77.30
11838;DHT22;5978;51.020;6.764;2023-04-03T09:37:43;8.90;80.00
11838;DHT22;5978;51.020;6.764;2023-04-03T09:42:59;8.90;81.30
11838;DHT22;5978;51.020;6.764;2023-04-03T09:45:33;9.00;82.00
11838;DHT22;5978;51.020;6.764;2023-04-03T09:51:00;9.10;85.00
11838;DHT22;5978;51.020;6.764;2023-04-03T09:53:38;9.20;85.70
11838;DHT22;5978;51.020;6.764;2023-04-03T09:58:50;9.30;84.60
11838;DHT22;5978;51.020;6.764;2023-04-03T10:01:36;9.40;81.40
11838;DHT22;5978;51.020;6.764;2023-04-03T10:04:20;9.30;71.70
11838;DHT22;5978;51.020;6.764;2023-04-03T10:06:52;9.40;68.20
11838;DHT22;5978;51.020;6.764;2023-04-03T10:09:31;9.60;67.10
11838;DHT22;5978;51.020;6.764;2023-04-03T10:12:04;9.80;73.40
11838;DHT22;5978;51.020;6.764;2023-04-03T10:14:53;10.10;70.90
11838;DHT22;5978;51.020;6.764;2023-04-03T10:23:15;10.20;64.40
11838;DHT22;5978;51.020;6.764;2023-04-03T10:31:05;10.50;64.60
11838;DHT22;5978;51.020;6.764;2023-04-03T10:33:51;10.60;64.70
11838;DHT22;5978;51.020;6.764;2023-04-03T10:47:20;11.50;61.90
11838;DHT22;5978;51.020;6.764;2023-04-03T10:50:08;11.70;61.40
11838;DHT22;5978;51.020;6.764;2023-04-03T10:55:55;12.60;59.10
11838;DHT22;5978;51.020;6.764;2023-04-03T10:58:45;13.00;58.10
11838;DHT22;5978;51.020;6.764;2023-04-03T11:01:19;13.30;58.90
11838;DHT22;5978;51.020;6.764;2023-04-03T11:03:57;13.60;57.90
11838;DHT22;5978;51.020;6.764;2023-04-03T11:06:26;13.30;55.10
11838;DHT22;5978;51.020;6.764;2023-04-03T11:08:57;13.30;54.80
11838;DHT22;5978;51.020;6.764;2023-04-03T11:11:27;13.60;54.70
11838;DHT22;5978;51.020;6.764;2023-04-03T11:16:30;14.20;54.90
11838;DHT22;5978;51.020;6.764;2023-04-03T11:19:17;14.80;54.70
11838;DHT22;5978;51.020;6.764;2023-04-03T11:22:14;14.40;52.30
11838;DHT22;5978;51.020;6.764;2023-04-03T11:24:43;14.60;52.70
11838;DHT22;5978;51.020;6.764;2023-04-03T11:27:18;14.60;51.30
11838;DHT22;5978;51.020;6.764;2023-04-03T11:29:48;14.40;50.60
11838;DHT22;5978;51.020;6.764;2023-04-03T11:35:07;15.30;50.20
11838;DHT22;5978;51.020;6.764;2023-04-03T11:37:43;14.80;49.90
11838;DHT22;5978;51.020;6.764;2023-04-03T11:42:46;16.30;49.10
11838;DHT22;5978;51.020;6.764;2023-04-03T11:50:52;16.10;47.00
11838;DHT22;5978;51.020;6.764;2023-04-03T11:53:31;16.00;46.90
11838;DHT22;5978;51.020;6.764;2023-04-03T12:01:56;17.00;45.00
11838;DHT22;5978;51.020;6.764;2023-04-03T12:04:25;17.20;43.90
11838;DHT22;5978;51.020;6.764;2023-04-03T12:07:15;17.00;43.70
11838;DHT22;5978;51.020;6.764;2023-04-03T12:14:55;17.40;43.40
11838;DHT22;5978;51.020;6.764;2023-04-03T12:17:25;18.00;42.10
11838;DHT22;5978;51.020;6.764;2023-04-03T12:19:52;18.00;41.60
11838;DHT22;5978;51.020;6.764;2023-04-03T12:22:19;17.50;40.60
11838;DHT22;5978;51.020;6.764;2023-04-03T12:24:48;17.90;41.20
11838;DHT22;5978;51.020;6.764;2023-04-03T12:27:38;18.70;40.80
11838;DHT22;5978;51.020;6.764;2023-04-03T12:30:21;19.00;39.80
11838;DHT22;5978;51.020;6.764;2023-04-03T12:51:22;19.80;37.00
11838;DHT22;5978;51.020;6.764;2023-04-03T12:53:50;19.90;36.80
11838;DHT22;5978;51.020;6.764;2023-04-03T12:58:48;20.10;36.10
11838;DHT22;5978;51.020;6.764;2023-04-03T13:01:18;19.60;36.20
11838;DHT22;5978;51.020;6.764;2023-04-03T13:03:49;19.10;35.60
11838;DHT22;5978;51.020;6.764;2023-04-03T13:06:25;19.10;36.20
11838;DHT22;5978;51.020;6.764;2023-04-03T13:08:57;20.30;36.70
11838;DHT22;5978;51.020;6.764;2023-04-03T13:11:25;22.00;36.80
11838;DHT22;5978;51.020;6.764;2023-04-03T13:13:59;21.70;35.10
11838;DHT22;5978;51.020;6.764;2023-04-03T13:16:25;21.80;35.30
11838;DHT22;5978;51.020;6.764;2023-04-03T13:18:55;22.40;36.00
11838;DHT22;5978;51.020;6.764;2023-04-03T13:21:27;22.20;34.90
11838;DHT22;5978;51.020;6.764;2023-04-03T13:24:01;22.80;34.90
11838;DHT22;5978;51.020;6.764;2023-04-03T13:26:31;22.90;34.30
11838;DHT22;5978;51.020;6.764;2023-04-03T13:29:03;21.90;33.90
11838;DHT22;5978;51.020;6.764;2023-04-03T13:31:33;22.40;35.00
11838;DHT22;5978;51.020;6.764;2023-04-03T13:34:18;21.80;34.50
11838;DHT22;5978;51.020;6.764;2023-04-03T13:36:54;22.50;35.40
11838;DHT22;5978;51.020;6.764;2023-04-03T13:41:52;22.30;35.30
11838;DHT22;5978;51.020;6.764;2023-04-03T13:46:47;22.70;35.60
11838;DHT22;5978;51.020;6.764;2023-04-03T13:49:27;23.00;35.20
11838;DHT22;5978;51.020;6.764;2023-04-03T13:51:54;23.00;36.00
11838;DHT22;5978;51.020;6.764;2023-04-03T13:56:51;22.10;34.80
11838;DHT22;5978;51.020;6.764;2023-04-03T13:59:36;21.20;34.90
11838;DHT22;5978;51.020;6.764;2023-04-03T14:04:30;21.80;35.70
11838;DHT22;5978;51.020;6.764;2023-04-03T14:06:57;21.80;35.90
11838;DHT22;5978;51.020;6.764;2023-04-03T14:09:26;22.40;35.50
11838;DHT22;5978;51.020;6.764;2023-04-03T14:11:57;21.60;35.20
11838;DHT22;5978;51.020;6.764;2023-04-03T14:14:28;22.10;36.50
11838;DHT22;5978;51.020;6.764;2023-04-03T14:16:57;21.60;35.30
11838;DHT22;5978;51.020;6.764;2023-04-03T14:19:30;22.10;36.10
11838;DHT22;5978;51.020;6.764;2023-04-03T14:21:59;23.30;36.70
11838;DHT22;5978;51.020;6.764;2023-04-03T14:24:25;23.50;35.30
11838;DHT22;5978;51.020;6.764;2023-04-03T14:26:52;23.80;35.70
11838;DHT22;5978;51.020;6.764;2023-04-03T14:29:18;23.30;35.20
11838;DHT22;5978;51.020;6.764;2023-04-03T14:31:45;23.10;35.60
11838;DHT22;5978;51.020;6.764;2023-04-03T14:34:12;22.40;35.40
11838;DHT22;5978;51.020;6.764;2023-04-03T14:36:39;21.80;35.60
11838;DHT22;5978;51.020;6.764;2023-04-03T14:39:07;22.80;36.80
11838;DHT22;5978;51.020;6.764;2023-04-03T14:41:34;23.80;37.20
11838;DHT22;5978;51.020;6.764;2023-04-03T14:44:00;23.30;36.80
11838;DHT22;5978;51.020;6.764;2023-04-03T14:46:29;22.60;35.70
11838;DHT22;5978;51.020;6.764;2023-04-03T14:48:55;22.60;36.30
11838;DHT22;5978;51.020;6.764;2023-04-03T14:51:21;22.70;36.20
11838;DHT22;5978;51.020;6.764;2023-04-03T14:53:48;24.10;36.40
11838;DHT22;5978;51.020;6.764;2023-04-03T14:56:23;24.10;35.90
11838;DHT22;5978;51.020;6.764;2023-04-03T14:58:57;22.80;35.70
11838;DHT22;5978;51.020;6.764;2023-04-03T15:01:23;22.40;36.20
11838;DHT22;5978;51.020;6.764;2023-04-03T15:03:49;23.80;37.70
11838;DHT22;5978;51.020;6.764;2023-04-03T15:06:15;24.00;36.20
11838;DHT22;5978;51.020;6.764;2023-04-03T15:08:42;23.50;35.10
11838;DHT22;5978;51.020;6.764;2023-04-03T15:11:10;22.50;35.40
11838;DHT22;5978;51.020;6.764;2023-04-03T15:13:37;22.40;35.70
11838;DHT22;5978;51.020;6.764;2023-04-03T15:16:05;23.70;36.90
11838;DHT22;5978;51.020;6.764;2023-04-03T15:18:36;22.80;35.00
11838;DHT22;5978;51.020;6.764;2023-04-03T15:21:03;22.00;35.20
11838;DHT22;5978;51.020;6.764;2023-04-03T15:23:29;22.50;35.70
11838;DHT22;5978;51.020;6.764;2023-04-03T15:25:56;21.60;34.50
11838;DHT22;5978;51.020;6.764;2023-04-03T15:28:31;21.50;35.10
11838;DHT22;5978;51.020;6.764;2023-04-03T15:30:58;22.50;36.90
11838;DHT22;5978;51.020;6.764;2023-04-03T15:33:25;21.50;35.20
11838;DHT22;5978;51.020;6.764;2023-04-03T15:35:51;22.20;36.40
11838;DHT22;5978;51.020;6.764;2023-04-03T15:38:17;21.80;36.00
11838;DHT22;5978;51.020;6.764;2023-04-03T15:40:42;22.00;36.10
11838;DHT22;5978;51.020;6.764;2023-04-03T15:43:09;21.50;35.50
11838;DHT22;5978;51.020;6.764;2023-04-03T15:45:36;21.30;35.80
11838;DHT22;5978;51.020;6.764;2023-04-03T15:48:03;22.00;36.50
11838;DHT22;5978;51.020;6.764;2023-04-03T15:50:29;22.10;36.10
11838;DHT22;5978;51.020;6.764;2023-04-03T15:52:55;21.40;35.30
11838;DHT22;5978;51.020;6.764;2023-04-03T15:55:26;21.90;36.30
11838;DHT22;5978;51.020;6.764;2023-04-03T15:57:53;21.30;36.00
11838;DHT22;5978;51.020;6.764;2023-04-03T16:00:19;21.50;36.20
11838;DHT22;5978;51.020;6.764;2023-04-03T16:02:46;21.30;35.60
11838;DHT22;5978;51.020;6.764;2023-04-03T16:05:13;21.20;35.90
11838;DHT22;5978;51.020;6.764;2023-04-03T16:07:41;20.20;35.70
11838;DHT22;5978;51.020;6.764;2023-04-03T16:10:08;18.80;36.20
11838;DHT22;5978;51.020;6.764;2023-04-03T16:12:35;16.90;36.80
11838;DHT22;5978;51.020;6.764;2023-04-03T16:15:01;16.20;38.00
11838;DHT22;5978;51.020;6.764;2023-04-03T16:17:27;16.30;39.50
11838;DHT22;5978;51.020;6.764;2023-04-03T16:19:54;16.00;40.10
11838;DHT22;5978;51.020;6.764;2023-04-03T16:22:20;15.00;40.30
11838;DHT22;5978;51.020;6.764;2023-04-03T16:24:46;14.20;41.10
11838;DHT22;5978;51.020;6.764;2023-04-03T16:27:12;13.70;41.90
11838;DHT22;5978;51.020;6.764;2023-04-03T16:29:37;13.10;42.40
11838;DHT22;5978;51.020;6.764;2023-04-03T16:32:03;12.30;42.90
11838;DHT22;5978;51.020;6.764;2023-04-03T16:34:29;12.10;43.80
11838;DHT22;5978;51.020;6.764;2023-04-03T16:36:59;11.90;44.50
11838;DHT22;5978;51.020;6.764;2023-04-03T16:39:25;11.70;45.30
11838;DHT22;5978;51.020;6.764;2023-04-03T16:41:50;11.60;46.40
11838;DHT22;5978;51.020;6.764;2023-04-03T16:44:16;11.50;46.40
11838;DHT22;5978;51.020;6.764;2023-04-03T16:46:42;11.40;46.80
11838;DHT22;5978;51.020;6.764;2023-04-03T16:49:08;11.40;47.10
11838;DHT22;5978;51.020;6.764;2023-04-03T16:51:34;11.40;47.80
11838;DHT22;5978;51.020;6.764;2023-04-03T16:54:00;11.20;47.50
11838;DHT22;5978;51.020;6.764;2023-04-03T16:56:26;11.00;47.40
11838;DHT22;5978;51.020;6.764;2023-04-03T16:58:54;10.80;47.30
11838;DHT22;5978;51.020;6.764;2023-04-03T17:01:21;10.80;47.70
11838;DHT22;5978;51.020;6.764;2023-04-03T17:03:47;10.70;48.30
11838;DHT22;5978;51.020;6.764;2023-04-03T17:06:18;10.60;48.60
11838;DHT22;5978;51.020;6.764;2023-04-03T17:08:46;10.50;49.10
11838;DHT22;5978;51.020;6.764;2023-04-03T17:11:13;10.50;49.40
11838;DHT22;5978;51.020;6.764;2023-04-03T17:13:39;10.40;49.40
11838;DHT22;5978;51.020;6.764;2023-04-03T17:16:07;10.40;49.60
11838;DHT22;5978;51.020;6.764;2023-04-03T17:18:34;10.30;49.70
11838;DHT22;5978;51.020;6.764;2023-04-03T17:21:01;10.20;49.90
11838;DHT22;5978;51.020;6.764;2023-04-03T17:23:27;10.10;49.90
11838;DHT22;5978;51.020;6.764;2023-04-03T17:25:54;10.00;49.90
11838;DHT22;5978;51.020;6.764;2023-04-03T17:28:22;9.90;50.80
11838;DHT22;5978;51.020;6.764;2023-04-03T17:30:53;9.90;51.30
11838;DHT22;5978;51.020;6.764;2023-04-03T17:33:19;9.80;51.80
11838;DHT22;5978;51.020;6.764;2023-04-03T17:35:45;9.80;52.50
11838;DHT22;5978;51.020;6.764;2023-04-03T17:38:10;9.70;53.00
11838;DHT22;5978;51.020;6.764;2023-04-03T17:40:36;9.60;53.60
11838;DHT22;5978;51.020;6.764;2023-04-03T17:43:02;9.50;53.90
11838;DHT22;5978;51.020;6.764;2023-04-03T17:45:28;9.40;54.30
11838;DHT22;5978;51.020;6.764;2023-04-03T17:47:53;9.30;54.50
11838;DHT22;5978;51.020;6.764;2023-04-03T17:50:19;9.20;54.40
11838;DHT22;5978;51.020;6.764;2023-04-03T17:52:45;9.10;54.50